sensor_id;sensor_type;location;lat;lon;timestamp;pressure;altitude;pressure_sealevel;temperature;humidity
48563;BME280;34981;49.104;11.396;2023-04-03T00:00:06;99744.16;;;0.80;100.00
48563;BME280;34981;49.104;11.396;2023-04-03T00:02:33;99739.91;;;0.77;100.00
48563;BME280;34981;49.104;11.396;2023-04-03T00:05:01;99719.66;;;0.65;100.00
48563;BME280;34981;49.104;11.396;2023-04-03T00:07:28;99718.81;;;0.64;100.00
48563;BME280;34981;49.104;11.396;2023-04-03T00:09:55;99728.94;;;0.70;100.00
48563;BME280;34981;49.104;11.396;2023-04-03T00:12:22;99709.19;;;0.63;100.00
48563;BME280;34981;49.104;11.396;2023-04-03T00:14:49;99709.28;;;0.62;100.00
48563;BME280;34981;49.104;11.396;2023-04-03T00:17:16;99719.78;;;0.63;100.00
48563;BME280;34981;49.104;11.396;2023-04-03T00:19:43;99707.84;;;0.58;100.00
48563;BME280;34981;49.104;11.396;2023-04-03T00:22:10;99696.63;;;0.54;100.00
48563;BME280;34981;49.104;11.396;2023-04-03T00:24:38;99710.59;;;0.56;100.00
48563;BME280;34981;49.104;11.396;2023-04-03T00:27:05;99713.28;;;0.67;100.00
48563;BME280;34981;49.104;11.396;2023-04-03T00:29:32;99712.50;;;0.54;100.00
48563;BME280;34981;49.104;11.396;2023-04-03T00:31:59;99695.19;;;0.50;100.00
48563;BME280;34981;49.104;11.396;2023-04-03T00:34:26;99689.88;;;0.50;100.00
48563;BME280;34981;49.104;11.396;2023-04-03T00:36:53;99699.00;;;0.46;100.00
48563;BME280;34981;49.104;11.396;2023-04-03T00:39:20;99685.66;;;0.48;100.00
48563;BME280;34981;49.104;11.396;2023-04-03T00:41:48;99686.03;;;0.54;100.00
48563;BME280;34981;49.104;11.396;2023-04-03T00:44:21;99678.94;;;0.55;100.00
48563;BME280;34981;49.104;11.396;2023-04-03T00:46:49;99671.00;;;0.55;100.00
48563;BME280;34981;49.104;11.396;2023-04-03T00:49:16;99664.47;;;0.48;100.00
48563;BME280;34981;49.104;11.396;2023-04-03T00:51:43;99662.78;;;0.47;100.00
48563;BME280;34981;49.104;11.396;2023-04-03T00:54:10;99660.50;;;0.42;100.00
48563;BME280;34981;49.104;11.396;2023-04-03T00:56:38;99666.19;;;0.49;100.00
48563;BME280;34981;49.104;11.396;2023-04-03T00:59:06;99661.47;;;0.52;100.00
48563;BME280;34981;49.104;11.396;2023-04-03T01:01:35;99657.50;;;0.47;100.00
48563;BME280;34981;49.104;11.396;2023-04-03T01:04:04;99647.47;;;0.39;100.00
48563;BME280;34981;49.104;11.396;2023-04-03T01:06:34;99645.47;;;0.43;100.00
48563;BME280;34981;49.104;11.396;2023-04-03T01:09:05;99637.63;;;0.41;100.00
48563;BME280;34981;49.104;11.396;2023-04-03T01:11:33;99641.22;;;0.40;100.00
48563;BME280;34981;49.104;11.396;2023-04-03T01:14:01;99632.06;;;0.33;100.00
48563;BME280;34981;49.104;11.396;2023-04-03T01:16:29;99627.97;;;0.29;100.00
48563;BME280;34981;49.104;11.396;2023-04-03T01:18:59;99638.22;;;0.33;100.00
48563;BME280;34981;49.104;11.396;2023-04-03T01:21:41;99638.56;;;0.29;100.00
48563;BME280;34981;49.104;11.396;2023-04-03T01:24:21;99620.63;;;0.32;100.00
48563;BME280;34981;49.104;11.396;2023-04-03T01:26:49;99621.22;;;0.25;100.00
48563;BME280;34981;49.104;11.396;2023-04-03T01:29:17;99627.34;;;0.25;100.00
48563;BME280;34981;49.104;11.396;2023-04-03T01:31:52;99617.97;;;0.21;100.00
48563;BME280;34981;49.104;11.396;2023-04-03T01:34:19;99613.25;;;0.14;100.00
48563;BME280;34981;49.104;11.396;2023-04-03T01:36:47;99614.91;;;0.15;100.00
48563;BME280;34981;49.104;11.396;2023-04-03T01:39:14;99623.59;;;0.17;100.00
48563;BME280;34981;49.104;11.396;2023-04-03T01:41:41;99615.06;;;0.13;100.00
48563;BME280;34981;49.104;11.396;2023-04-03T01:44:21;99609.13;;;0.10;100.00
48563;BME280;34981;49.104;11.396;2023-04-03T01:46:48;99622.13;;;0.13;100.00
48563;BME280;34981;49.104;11.396;2023-04-03T01:49:16;99624.88;;;0.11;100.00
48563;BME280;34981;49.104;11.396;2023-04-03T01:51:44;99625.75;;;0.12;100.00
48563;BME280;34981;49.104;11.396;2023-04-03T01:54:11;99621.88;;;0.16;100.00
48563;BME280;34981;49.104;11.396;2023-04-03T01:56:38;99618.53;;;0.14;100.00
48563;BME280;34981;49.104;11.396;2023-04-03T01:59:06;99632.53;;;0.27;100.00
48563;BME280;34981;49.104;11.396;2023-04-03T02:01:33;99619.25;;;0.16;100.00
48563;BME280;34981;49.104;11.396;2023-04-03T02:04:00;99621.78;;;0.17;100.00
48563;BME280;34981;49.104;11.396;2023-04-03T02:06:27;99617.44;;;0.16;100.00
48563;BME280;34981;49.104;11.396;2023-04-03T02:08:55;99613.97;;;0.16;100.00
48563;BME280;34981;49.104;11.396;2023-04-03T02:11:22;99611.03;;;0.08;100.00
48563;BME280;34981;49.104;11.396;2023-04-03T02:13:49;99610.81;;;0.11;100.00
48563;BME280;34981;49.104;11.396;2023-04-03T02:16:16;99614.09;;;0.14;100.00
48563;BME280;34981;49.104;11.396;2023-04-03T02:18:43;99609.97;;;0.10;100.00
48563;BME280;34981;49.104;11.396;2023-04-03T02:21:11;99609.88;;;0.12;100.00
48563;BME280;34981;49.104;11.396;2023-04-03T02:23:38;99612.41;;;0.13;100.00
48563;BME280;34981;49.104;11.396;2023-04-03T02:28:33;99603.34;;;0.05;100.00
48563;BME280;34981;49.104;11.396;2023-04-03T02:31:00;99605.75;;;0.08;100.00
48563;BME280;34981;49.104;11.396;2023-04-03T02:33:28;99613.25;;;0.14;100.00
48563;BME280;34981;49.104;11.396;2023-04-03T02:35:56;99614.19;;;0.13;100.00
48563;BME280;34981;49.104;11.396;2023-04-03T02:38:23;99608.38;;;0.08;100.00
48563;BME280;34981;49.104;11.396;2023-04-03T02:40:51;99606.72;;;0.07;100.00
48563;BME280;34981;49.104;11.396;2023-04-03T02:43:19;99611.56;;;0.13;100.00
48563;BME280;34981;49.104;11.396;2023-04-03T02:45:46;99611.03;;;0.08;100.00
48563;BME280;34981;49.104;11.396;2023-04-03T02:48:13;99613.19;;;0.03;100.00
48563;BME280;34981;49.104;11.396;2023-04-03T02:50:41;99614.78;;;0.05;100.00
48563;BME280;34981;49.104;11.396;2023-04-03T02:53:08;99630.78;;;0.15;100.00
48563;BME280;34981;49.104;11.396;2023-04-03T02:55:35;99619.59;;;0.11;100.00
48563;BME280;34981;49.104;11.396;2023-04-03T02:58:03;99617.81;;;0.12;100.00
48563;BME280;34981;49.104;11.396;2023-04-03T03:00:30;99636.63;;;0.31;100.00
48563;BME280;34981;49.104;11.396;2023-04-03T03:02:58;99620.94;;;0.17;100.00
48563;BME280;34981;49.104;11.396;2023-04-03T03:05:25;99625.06;;;0.21;100.00
48563;BME280;34981;49.104;11.396;2023-04-03T03:07:52;99618.53;;;0.14;100.00
48563;BME280;34981;49.104;11.396;2023-04-03T03:10:19;99624.22;;;0.20;100.00
48563;BME280;34981;49.104;11.396;2023-04-03T03:12:47;99629.16;;;0.25;100.00
48563;BME280;34981;49.104;11.396;2023-04-03T03:15:14;99611.88;;;0.08;100.00
48563;BME280;34981;49.104;11.396;2023-04-03T03:17:42;99638.31;;;0.32;100.00
48563;BME280;34981;49.104;11.396;2023-04-03T03:20:10;99640.84;;;0.33;100.00
48563;BME280;34981;49.104;11.396;2023-04-03T03:22:37;99640.75;;;0.35;100.00
48563;BME280;34981;49.104;11.396;2023-04-03T03:25:04;99632.84;;;0.22;100.00
48563;BME280;34981;49.104;11.396;2023-04-03T03:27:31;99623.69;;;0.15;100.00
48563;BME280;34981;49.104;11.396;2023-04-03T03:29:59;99633.38;;;0.27;100.00
48563;BME280;34981;49.104;11.396;2023-04-03T03:32:26;99613.19;;;0.03;100.00
48563;BME280;34981;49.104;11.396;2023-04-03T03:34:53;99599.69;;;-0.06;100.00
48563;BME280;34981;49.104;11.396;2023-04-03T03:37:20;99603.41;;;-0.08;100.00
48563;BME280;34981;49.104;11.396;2023-04-03T03:39:47;99602.44;;;-0.07;100.00
48563;BME280;34981;49.104;11.396;2023-04-03T03:42:14;99608.91;;;-0.11;100.00
48563;BME280;34981;49.104;11.396;2023-04-03T03:44:42;99607.63;;;-0.06;100.00
48563;BME280;34981;49.104;11.396;2023-04-03T03:47:10;99610.03;;;-0.03;100.00
48563;BME280;34981;49.104;11.396;2023-04-03T03:49:38;99604.09;;;-0.17;100.00
48563;BME280;34981;49.104;11.396;2023-04-03T03:52:05;99613.38;;;-0.12;100.00
48563;BME280;34981;49.104;11.396;2023-04-03T03:54:32;99617.81;;;-0.12;100.00
48563;BME280;34981;49.104;11.396;2023-04-03T03:56:59;99614.94;;;-0.09;100.00
48563;BME280;34981;49.104;11.396;2023-04-03T03:59:29;99620.56;;;-0.14;100.00
48563;BME280;34981;49.104;11.396;2023-04-03T04:01:56;99614.66;;;-0.17;100.00
48563;BME280;34981;49.104;11.396;2023-04-03T04:04:24;99616.34;;;-0.16;100.00
48563;BME280;34981;49.104;11.396;2023-04-03T04:06:51;99615.63;;;-0.18;100.00
48563;BME280;34981;49.104;11.396;2023-04-03T04:09:19;99609.47;;;-0.19;100.00
48563;BME280;34981;49.104;11.396;2023-04-03T04:11:46;99610.78;;;-0.24;100.00
48563;BME280;34981;49.104;11.396;2023-04-03T04:14:16;99609.84;;;-0.23;100.00
48563;BME280;34981;49.104;11.396;2023-04-03T04:16:43;99609.00;;;-0.24;100.00
48563;BME280;34981;49.104;11.396;2023-04-03T04:19:15;99611.53;;;-0.22;100.00
48563;BME280;34981;49.104;11.396;2023-04-03T04:21:44;99614.47;;;-0.27;100.00
48563;BME280;34981;49.104;11.396;2023-04-03T04:24:11;99629.59;;;-0.29;100.00
48563;BME280;34981;49.104;11.396;2023-04-03T04:26:38;99637.91;;;-0.10;100.00
48563;BME280;34981;49.104;11.396;2023-04-03T04:29:09;99634.97;;;-0.18;100.00
48563;BME280;34981;49.104;11.396;2023-04-03T04:31:37;99632.69;;;-0.22;100.00
48563;BME280;34981;49.104;11.396;2023-04-03T04:34:04;99635.44;;;-0.24;100.00
48563;BME280;34981;49.104;11.396;2023-04-03T04:36:31;99639.53;;;-0.20;100.00
48563;BME280;34981;49.104;11.396;2023-04-03T04:38:59;99632.25;;;-0.29;100.00
48563;BME280;34981;49.104;11.396;2023-04-03T04:41:27;99652.75;;;-0.20;100.00
48563;BME280;34981;49.104;11.396;2023-04-03T04:43:54;99651.28;;;-0.24;100.00
48563;BME280;34981;49.104;11.396;2023-04-03T04:46:22;99657.19;;;-0.20;100.00
48563;BME280;34981;49.104;11.396;2023-04-03T04:48:54;99644.00;;;-0.33;100.00
48563;BME280;34981;49.104;11.396;2023-04-03T04:51:22;99646.75;;;-0.34;100.00
48563;BME280;34981;49.104;11.396;2023-04-03T04:53:49;99655.00;;;-0.26;100.00
48563;BME280;34981;49.104;11.396;2023-04-03T04:56:18;99663.88;;;-0.27;100.00
48563;BME280;34981;49.104;11.396;2023-04-03T04:58:46;99672.88;;;-0.30;100.00
48563;BME280;34981;49.104;11.396;2023-04-03T05:01:15;99669.41;;;-0.30;100.00
48563;BME280;34981;49.104;11.396;2023-04-03T05:03:51;99660.81;;;-0.34;100.00
48563;BME280;34981;49.104;11.396;2023-04-03T05:06:19;99664.53;;;-0.36;100.00
48563;BME280;34981;49.104;11.396;2023-04-03T05:08:46;99675.75;;;-0.33;100.00
48563;BME280;34981;49.104;11.396;2023-04-03T05:11:13;99683.22;;;-0.27;100.00
48563;BME280;34981;49.104;11.396;2023-04-03T05:13:42;99698.97;;;-0.25;100.00
48563;BME280;34981;49.104;11.396;2023-04-03T05:16:09;99689.81;;;-0.32;100.00
48563;BME280;34981;49.104;11.396;2023-04-03T05:18:38;99689.59;;;-0.29;100.00
48563;BME280;34981;49.104;11.396;2023-04-03T05:21:09;99705.13;;;-0.25;100.00
48563;BME280;34981;49.104;11.396;2023-04-03T05:23:36;99706.16;;;-0.27;100.00
48563;BME280;34981;49.104;11.396;2023-04-03T05:26:04;99719.25;;;-0.13;100.00
48563;BME280;34981;49.104;11.396;2023-04-03T05:28:31;99718.53;;;-0.15;100.00
48563;BME280;34981;49.104;11.396;2023-04-03T05:30:59;99729.72;;;-0.12;100.00
48563;BME280;34981;49.104;11.396;2023-04-03T05:33:32;99738.16;;;-0.07;100.00
48563;BME280;34981;49.104;11.396;2023-04-03T05:36:03;99732.88;;;-0.07;100.00
48563;BME280;34981;49.104;11.396;2023-04-03T05:38:33;99740.28;;;-0.12;100.00
48563;BME280;34981;49.104;11.396;2023-04-03T05:41:01;99746.09;;;-0.07;100.00
48563;BME280;34981;49.104;11.396;2023-04-03T05:43:28;99751.69;;;0.02;100.00
48563;BME280;34981;49.104;11.396;2023-04-03T05:45:55;99770.72;;;0.07;100.00
48563;BME280;34981;49.104;11.396;2023-04-03T05:48:25;99764.91;;;0.02;100.00
48563;BME280;34981;49.104;11.396;2023-04-03T05:50:53;99764.59;;;0.06;100.00
48563;BME280;34981;49.104;11.396;2023-04-03T05:53:26;99783.41;;;0.14;100.00
48563;BME280;34981;49.104;11.396;2023-04-03T05:55:55;99777.47;;;0.11;100.00
48563;BME280;34981;49.104;11.396;2023-04-03T05:58:23;99798.41;;;0.26;100.00
48563;BME280;34981;49.104;11.396;2023-04-03T06:00:52;99802.34;;;0.21;100.00
48563;BME280;34981;49.104;11.396;2023-04-03T06:03:19;99801.88;;;0.27;100.00
48563;BME280;34981;49.104;11.396;2023-04-03T06:05:48;99815.41;;;0.35;100.00
48563;BME280;34981;49.104;11.396;2023-04-03T06:08:16;99819.50;;;0.39;100.00
48563;BME280;34981;49.104;11.396;2023-04-03T06:10:43;99816.66;;;0.42;100.00
48563;BME280;34981;49.104;11.396;2023-04-03T06:13:11;99820.75;;;0.46;100.00
48563;BME280;34981;49.104;11.396;2023-04-03T06:15:38;99824.34;;;0.45;100.00
48563;BME280;34981;49.104;11.396;2023-04-03T06:18:08;99829.94;;;0.53;100.00
48563;BME280;34981;49.104;11.396;2023-04-03T06:20:35;99828.88;;;0.56;100.00
48563;BME280;34981;49.104;11.396;2023-04-03T06:23:03;99842.06;;;0.68;100.00
48563;BME280;34981;49.104;11.396;2023-04-03T06:25:31;99847.16;;;0.71;100.00
48563;BME280;34981;49.104;11.396;2023-04-03T06:27:58;99842.19;;;0.67;100.00
48563;BME280;34981;49.104;11.396;2023-04-03T06:30:25;99853.06;;;0.75;100.00
48563;BME280;34981;49.104;11.396;2023-04-03T06:32:53;99845.22;;;0.73;100.00
48563;BME280;34981;49.104;11.396;2023-04-03T06:35:20;99855.59;;;0.76;100.00
48563;BME280;34981;49.104;11.396;2023-04-03T06:37:47;99844.78;;;0.80;100.00
48563;BME280;34981;49.104;11.396;2023-04-03T06:40:16;99850.38;;;0.88;100.00
48563;BME280;34981;49.104;11.396;2023-04-03T06:42:45;99839.63;;;0.89;100.00
48563;BME280;34981;49.104;11.396;2023-04-03T06:45:13;99857.41;;;1.00;100.00
48563;BME280;34981;49.104;11.396;2023-04-03T06:47:40;99863.19;;;1.05;100.00
48563;BME280;34981;49.104;11.396;2023-04-03T06:50:08;99874.19;;;1.11;100.00
48563;BME280;34981;49.104;11.396;2023-04-03T06:52:38;99875.69;;;1.27;100.00
48563;BME280;34981;49.104;11.396;2023-04-03T06:55:07;99875.09;;;1.23;100.00
48563;BME280;34981;49.104;11.396;2023-04-03T06:57:35;99885.44;;;1.26;100.00
48563;BME280;34981;49.104;11.396;2023-04-03T07:00:03;99867.31;;;1.09;100.00
48563;BME280;34981;49.104;11.396;2023-04-03T07:02:31;99876.72;;;1.13;100.00
48563;BME280;34981;49.104;11.396;2023-04-03T07:04:58;99872.28;;;1.13;100.00
48563;BME280;34981;49.104;11.396;2023-04-03T07:07:25;99867.09;;;1.12;100.00
48563;BME280;34981;49.104;11.396;2023-04-03T07:09:53;99870.97;;;1.19;100.00
48563;BME280;34981;49.104;11.396;2023-04-03T07:12:20;99881.47;;;1.21;100.00
48563;BME280;34981;49.104;11.396;2023-04-03T07:14:47;99877.09;;;1.20;100.00
48563;BME280;34981;49.104;11.396;2023-04-03T07:17:14;99871.53;;;1.11;100.00
48563;BME280;34981;49.104;11.396;2023-04-03T07:19:41;99864.31;;;1.13;100.00
48563;BME280;34981;49.104;11.396;2023-04-03T07:22:09;99871.22;;;1.16;100.00
48563;BME280;34981;49.104;11.396;2023-04-03T07:24:37;99869.91;;;1.22;100.00
48563;BME280;34981;49.104;11.396;2023-04-03T07:27:04;99876.53;;;1.27;100.00
48563;BME280;34981;49.104;11.396;2023-04-03T07:29:32;99871.25;;;1.27;100.00
48563;BME280;34981;49.104;11.396;2023-04-03T07:31:59;99874.66;;;1.40;100.00
48563;BME280;34981;49.104;11.396;2023-04-03T07:34:26;99872.25;;;1.37;100.00
48563;BME280;34981;49.104;11.396;2023-04-03T07:36:53;99878.78;;;1.44;100.00
48563;BME280;34981;49.104;11.396;2023-04-03T07:39:21;99880.69;;;1.42;100.00
48563;BME280;34981;49.104;11.396;2023-04-03T07:41:48;99879.38;;;1.48;100.00
48563;BME280;34981;49.104;11.396;2023-04-03T07:44:16;99881.19;;;1.47;100.00
48563;BME280;34981;49.104;11.396;2023-04-03T07:46:44;99894.97;;;1.64;100.00
48563;BME280;34981;49.104;11.396;2023-04-03T07:49:11;99886.06;;;1.65;100.00
48563;BME280;34981;49.104;11.396;2023-04-03T07:51:38;99883.03;;;1.69;100.00
48563;BME280;34981;49.104;11.396;2023-04-03T07:54:05;99889.72;;;1.75;100.00
48563;BME280;34981;49.104;11.396;2023-04-03T07:56:32;99863.84;;;1.54;100.00
48563;BME280;34981;49.104;11.396;2023-04-03T07:59:00;99863.63;;;1.58;100.00
48563;BME280;34981;49.104;11.396;2023-04-03T08:01:27;99879.56;;;1.80;100.00
48563;BME280;34981;49.104;11.396;2023-04-03T08:03:54;99881.97;;;1.83;100.00
48563;BME280;34981;49.104;11.396;2023-04-03T08:06:21;99869.69;;;1.82;100.00
48563;BME280;34981;49.104;11.396;2023-04-03T08:09:03;99846.53;;;1.73;100.00
48563;BME280;34981;49.104;11.396;2023-04-03T08:11:31;99866.78;;;1.85;100.00
48563;BME280;34981;49.104;11.396;2023-04-03T08:13:58;99851.00;;;1.83;100.00
48563;BME280;34981;49.104;11.396;2023-04-03T08:16:25;99850.88;;;1.85;100.00
48563;BME280;34981;49.104;11.396;2023-04-03T08:18:54;99818.09;;;1.75;100.00
48563;BME280;34981;49.104;11.396;2023-04-03T08:21:21;99811.44;;;1.69;100.00
48563;BME280;34981;49.104;11.396;2023-04-03T08:23:49;99816.88;;;1.90;100.00
48563;BME280;34981;49.104;11.396;2023-04-03T08:26:19;99818.69;;;2.01;100.00
48563;BME280;34981;49.104;11.396;2023-04-03T08:28:47;99805.78;;;1.96;100.00
48563;BME280;34981;49.104;11.396;2023-04-03T08:31:15;99807.00;;;2.03;100.00
48563;BME280;34981;49.104;11.396;2023-04-03T08:33:44;99789.97;;;1.94;100.00
48563;BME280;34981;49.104;11.396;2023-04-03T08:36:19;99782.84;;;1.84;100.00
48563;BME280;34981;49.104;11.396;2023-04-03T08:38:47;99751.78;;;1.75;100.00
48563;BME280;34981;49.104;11.396;2023-04-03T08:41:15;99745.97;;;1.70;100.00
48563;BME280;34981;49.104;11.396;2023-04-03T08:46:11;99722.44;;;1.54;100.00
48563;BME280;34981;49.104;11.396;2023-04-03T08:48:43;99711.72;;;1.55;100.00
48563;BME280;34981;49.104;11.396;2023-04-03T08:51:14;99710.03;;;1.54;100.00
48563;BME280;34981;49.104;11.396;2023-04-03T08:53:44;99707.16;;;1.58;100.00
48563;BME280;34981;49.104;11.396;2023-04-03T08:56:13;99683.16;;;1.48;100.00
48563;BME280;34981;49.104;11.396;2023-04-03T08:58:49;99678.38;;;1.53;100.00
48563;BME280;34981;49.104;11.396;2023-04-03T09:01:19;99674.38;;;1.59;100.00
48563;BME280;34981;49.104;11.396;2023-04-03T09:03:47;99677.03;;;1.59;100.00
48563;BME280;34981;49.104;11.396;2023-04-03T09:06:21;99666.44;;;1.59;100.00
48563;BME280;34981;49.104;11.396;2023-04-03T09:11:26;99661.44;;;1.87;100.00
48563;BME280;34981;49.104;11.396;2023-04-03T09:16:56;99638.47;;;1.98;100.00
48563;BME280;34981;49.104;11.396;2023-04-03T09:21:59;99598.81;;;1.96;100.00
48563;BME280;34981;49.104;11.396;2023-04-03T09:24:28;99592.28;;;2.00;100.00
48563;BME280;34981;49.104;11.396;2023-04-03T09:27:00;99580.47;;;2.04;100.00
48563;BME280;34981;49.104;11.396;2023-04-03T09:29:29;99557.91;;;1.99;100.00
48563;BME280;34981;49.104;11.396;2023-04-03T09:31:58;99551.97;;;2.06;100.00
48563;BME280;34981;49.104;11.396;2023-04-03T09:36:58;99576.13;;;2.65;100.00
48563;BME280;34981;49.104;11.396;2023-04-03T09:39:26;99528.78;;;2.50;100.00
48563;BME280;34981;49.104;11.396;2023-04-03T09:42:01;99482.50;;;2.43;100.00
48563;BME280;34981;49.104;11.396;2023-04-03T09:44:30;99459.06;;;2.48;100.00
48563;BME280;34981;49.104;11.396;2023-04-03T09:46:58;99414.16;;;2.45;100.00
48563;BME280;34981;49.104;11.396;2023-04-03T09:49:25;99367.19;;;2.35;100.00
48563;BME280;34981;49.104;11.396;2023-04-03T09:51:53;99330.78;;;2.17;100.00
48563;BME280;34981;49.104;11.396;2023-04-03T09:54:24;99301.19;;;2.12;100.00
48563;BME280;34981;49.104;11.396;2023-04-03T09:56:53;99239.13;;;2.03;100.00
48563;BME280;34981;49.104;11.396;2023-04-03T09:59:22;99185.22;;;2.03;100.00
48563;BME280;34981;49.104;11.396;2023-04-03T10:02:00;99162.31;;;2.02;100.00
48563;BME280;34981;49.104;11.396;2023-04-03T10:04:39;99138.44;;;2.02;100.00
48563;BME280;34981;49.104;11.396;2023-04-03T10:09:57;99081.03;;;1.91;100.00
48563;BME280;34981;49.104;11.396;2023-04-03T10:12:24;99069.31;;;2.03;100.00
48563;BME280;34981;49.104;11.396;2023-04-03T10:35:50;98651.34;;;3.05;100.00
48563;BME280;34981;49.104;11.396;2023-04-03T10:38:26;98618.22;;;3.00;100.00
48563;BME280;34981;49.104;11.396;2023-04-03T10:43:29;98471.50;;;2.80;100.00
48563;BME280;34981;49.104;11.396;2023-04-03T10:46:02;98464.09;;;2.92;100.00
48563;BME280;34981;49.104;11.396;2023-04-03T10:53:50;98305.84;;;2.81;100.00
48563;BME280;34981;49.104;11.396;2023-04-03T10:59:21;98278.66;;;3.20;100.00
48563;BME280;34981;49.104;11.396;2023-04-03T11:01:51;98246.75;;;2.87;100.00
48563;BME280;34981;49.104;11.396;2023-04-03T11:04:20;98232.31;;;2.90;100.00
48563;BME280;34981;49.104;11.396;2023-04-03T11:07:04;98173.34;;;2.86;100.00
48563;BME280;34981;49.104;11.396;2023-04-03T11:09:35;98100.78;;;3.02;100.00
48563;BME280;34981;49.104;11.396;2023-04-03T11:12:10;98028.09;;;2.87;100.00
48563;BME280;34981;49.104;11.396;2023-04-03T11:14:39;97982.09;;;2.94;100.00
48563;BME280;34981;49.104;11.396;2023-04-03T11:17:51;97962.69;;;3.25;100.00
48563;BME280;34981;49.104;11.396;2023-04-03T11:20:03;97934.38;;;3.63;100.00
48563;BME280;34981;49.104;11.396;2023-04-03T11:22:36;97864.53;;;3.46;100.00
48563;BME280;34981;49.104;11.396;2023-04-03T11:27:41;97918.91;;;4.04;100.00
48563;BME280;34981;49.104;11.396;2023-04-03T11:30:14;97860.72;;;4.01;100.00
48563;BME280;34981;49.104;11.396;2023-04-03T11:35:15;97687.78;;;3.57;100.00
48563;BME280;34981;49.104;11.396;2023-04-03T11:37:50;97592.63;;;3.37;100.00
48563;BME280;34981;49.104;11.396;2023-04-03T11:40:23;97591.59;;;4.04;100.00
48563;BME280;34981;49.104;11.396;2023-04-03T11:43:02;97415.78;;;3.56;100.00
48563;BME280;34981;49.104;11.396;2023-04-03T11:45:35;97334.22;;;3.63;100.00
48563;BME280;34981;49.104;11.396;2023-04-03T11:50:51;97354.41;;;4.41;100.00
48563;BME280;34981;49.104;11.396;2023-04-03T11:53:26;97274.50;;;4.35;100.00
48563;BME280;34981;49.104;11.396;2023-04-03T11:55:58;97201.09;;;4.06;100.00
48563;BME280;34981;49.104;11.396;2023-04-03T11:58:33;97138.69;;;4.08;100.00
48563;BME280;34981;49.104;11.396;2023-04-03T12:01:10;97072.56;;;4.12;100.00
48563;BME280;34981;49.104;11.396;2023-04-03T12:08:45;96916.16;;;3.81;100.00
48563;BME280;34981;49.104;11.396;2023-04-03T12:16:19;96871.97;;;3.80;100.00
48563;BME280;34981;49.104;11.396;2023-04-03T12:21:19;96856.84;;;4.13;100.00
48563;BME280;34981;49.104;11.396;2023-04-03T12:26:27;96793.28;;;4.43;100.00
48563;BME280;34981;49.104;11.396;2023-04-03T12:29:17;96725.72;;;3.93;100.00
48563;BME280;34981;49.104;11.396;2023-04-03T12:40:09;96596.59;;;4.28;100.00
48563;BME280;34981;49.104;11.396;2023-04-03T12:45:20;96511.66;;;4.27;100.00
48563;BME280;34981;49.104;11.396;2023-04-03T12:47:51;96568.06;;;4.42;100.00
48563;BME280;34981;49.104;11.396;2023-04-03T12:55:47;96430.09;;;4.76;100.00
48563;BME280;34981;49.104;11.396;2023-04-03T12:58:21;96369.59;;;4.64;100.00
48563;BME280;34981;49.104;11.396;2023-04-03T13:00:58;96319.34;;;4.38;100.00
48563;BME280;34981;49.104;11.396;2023-04-03T13:03:25;96278.88;;;4.48;100.00
48563;BME280;34981;49.104;11.396;2023-04-03T13:05:55;96260.00;;;4.49;100.00
48563;BME280;34981;49.104;11.396;2023-04-03T13:08:24;96217.00;;;4.34;100.00
48563;BME280;34981;49.104;11.396;2023-04-03T13:10:59;96224.78;;;4.65;100.00
48563;BME280;34981;49.104;11.396;2023-04-03T13:13:28;96175.75;;;4.43;100.00
48563;BME280;34981;49.104;11.396;2023-04-03T13:15:55;96174.97;;;4.54;100.00
48563;BME280;34981;49.104;11.396;2023-04-03T13:18:33;96151.00;;;4.54;100.00
48563;BME280;34981;49.104;11.396;2023-04-03T13:23:57;96069.41;;;4.07;100.00
48563;BME280;34981;49.104;11.396;2023-04-03T13:26:41;96095.50;;;4.28;100.00
48563;BME280;34981;49.104;11.396;2023-04-03T13:29:22;96092.72;;;4.35;100.00
48563;BME280;34981;49.104;11.396;2023-04-03T13:31:57;96092.25;;;4.26;100.00
48563;BME280;34981;49.104;11.396;2023-04-03T13:34:26;96094.59;;;4.34;100.00
48563;BME280;34981;49.104;11.396;2023-04-03T13:36:55;96065.22;;;4.11;100.00
48563;BME280;34981;49.104;11.396;2023-04-03T13:41:53;96045.13;;;4.15;100.00
48563;BME280;34981;49.104;11.396;2023-04-03T13:46:59;96049.06;;;4.24;100.00
48563;BME280;34981;49.104;11.396;2023-04-03T13:49:34;96038.00;;;4.27;100.00
48563;BME280;34981;49.104;11.396;2023-04-03T13:52:49;96037.53;;;4.30;100.00
48563;BME280;34981;49.104;11.396;2023-04-03T13:54:54;96016.69;;;4.15;100.00
48563;BME280;34981;49.104;11.396;2023-04-03T13:57:21;95978.25;;;4.00;100.00
48563;BME280;34981;49.104;11.396;2023-04-03T13:59:49;95958.31;;;3.90;100.00
48563;BME280;34981;49.104;11.396;2023-04-03T14:02:18;95937.75;;;3.98;100.00
48563;BME280;34981;49.104;11.396;2023-04-03T14:04:47;95897.38;;;3.77;100.00
48563;BME280;34981;49.104;11.396;2023-04-03T14:07:15;95894.44;;;3.67;100.00
48563;BME280;34981;49.104;11.396;2023-04-03T14:09:43;95914.63;;;4.10;100.00
48563;BME280;34981;49.104;11.396;2023-04-03T14:12:33;95900.56;;;4.21;100.00
48563;BME280;34981;49.104;11.396;2023-04-03T14:15:02;95898.94;;;4.20;100.00
48563;BME280;34981;49.104;11.396;2023-04-03T14:17:30;95886.91;;;3.94;100.00
48563;BME280;34981;49.104;11.396;2023-04-03T14:19:58;95854.50;;;3.97;100.00
48563;BME280;34981;49.104;11.396;2023-04-03T14:22:26;95825.81;;;3.87;100.00
48563;BME280;34981;49.104;11.396;2023-04-03T14:24:55;95816.09;;;3.81;100.00
48563;BME280;34981;49.104;11.396;2023-04-03T14:27:24;95799.34;;;3.92;100.00
48563;BME280;34981;49.104;11.396;2023-04-03T14:29:52;95789.06;;;4.08;100.00
48563;BME280;34981;49.104;11.396;2023-04-03T14:32:21;95778.44;;;4.08;100.00
48563;BME280;34981;49.104;11.396;2023-04-03T14:34:49;95759.72;;;3.79;100.00